Glenboro, Canada
Current Conditions -  °F | °C
As of 3:00 PM on Friday 24 Oct 2014 (Local Time) from CYBR Reporting Station
Broken Clouds Broken Clouds  
Wind Chill: 63°   Ceiling: 25000
Heat Index: 63°   Visibility: 15mi
Dew Point: 37°   Wind: 32mph
Humidity: 39%   Direction: 290°WNW
Pressure: 29.7"   Gusts: NA
Location:  49.55°N, 99.28°W
Report Text: CYBR 242000Z 29028KT 15SM FEW050 FEW140 BKN250 17/03 A2970 RMK CU1AC1CI6 CU TR AC TR SLP068 DENSITY ALT 2100FT
Loading
Personal Weather Stations






























Interactive Weather Map
Tropical Storm Tracking
New forecast layout! Learn more

10-Day Weather Forecast

Advertisements
Track Severe Weather on mobile